Belleair Beach, Florida
Current Conditions -  °F | °C
As of 3:35 AM on Saturday 22 Nov 2014 (Local Time) from KCLW Reporting Station
Overcast Overcast  
Wind Chill: 63°   Ceiling: 7500
Heat Index: 63°   Visibility: 10mi
Dew Point: 59°   Wind: 7mph
Humidity: 88%   Direction: 60°ENE
Pressure: 30.2"   Gusts: NA
Location:  27.92°N, 82.84°W
Report Text: KCLW 220835Z AUTO 06006KT 10SM OVC075 17/15 A3020 RMK AO2
Loading
Personal Weather Stations






























Interactive Weather Map New forecast layout! Learn more

10-Day Weather Forecast

Advertisements
Track Severe Weather on mobile